Time;durP1;ratioP1;P1;durP2;ratioP2;P2;SDS_P1;SDS_P2;PMS_P1;PMS_P2;Temp;Humidity;BMP_temperature;BMP_pressure;BME280_temperature;BME280_humidity;BME280_pressure;Samples;Min_cycle;Max_cycle;Signal;HPM_P1;HPM_P2
2023/01/30 00:01:20;;;;;;;;;;;9.20;99.90;;;;;;5059856;28;20340;-63
2023/01/30 00:03:46;;;;;;;;;;;9.10;99.90;;;;;;5060231;28;19913;-62
2023/01/30 00:06:11;;;;;;;;;;;9.20;99.90;;;;;;5059804;28;20384;-62
2023/01/30 00:08:37;;;;;;;;;;;9.20;99.90;;;;;;5059477;28;19909;-62
2023/01/30 00:11:04;;;;;;;;;;;9.20;99.90;;;;;;5060131;28;19931;-62
2023/01/30 00:13:29;;;;;;;;;;;9.20;99.90;;;;;;5060036;28;19908;-63
2023/01/30 00:15:55;;;;;;;;;;;9.30;99.90;;;;;;5060038;28;20376;-63
2023/01/30 00:18:20;;;;;;;;;;;9.20;99.90;;;;;;5059796;28;19987;-63
2023/01/30 00:20:46;;;;;;;;;;;9.30;99.90;;;;;;5060109;28;20349;-62
2023/01/30 00:23:12;;;;;;;;;;;9.30;99.90;;;;;;5059652;28;19920;-62
2023/01/30 00:25:37;;;;;;;;;;;9.30;99.90;;;;;;5059669;28;19909;-63
2023/01/30 00:28:03;;;;;;;;;;;9.20;99.90;;;;;;5059579;28;19932;-63
2023/01/30 00:30:29;;;;;;;;;;;9.20;99.90;;;;;;5059567;28;19912;-62
2023/01/30 00:32:55;;;;;;;;;;;9.10;99.90;;;;;;5059514;28;20387;-63
2023/01/30 00:35:21;;;;;;;;;;;9.10;99.90;;;;;;5059790;28;19909;-62
2023/01/30 00:37:47;;;;;;;;;;;9.20;99.90;;;;;;5059657;28;20386;-62
2023/01/30 00:40:12;;;;;;;;;;;9.20;99.90;;;;;;5059610;28;19909;-63
2023/01/30 00:48:06;;;;;;;;;;;9.30;99.90;;;;;;5044408;28;19916;-63
2023/01/30 00:50:41;;;;;;;;;;;9.30;99.90;;;;;;5059572;28;19909;-63
2023/01/30 00:53:10;;;;;;;;;;;9.20;99.90;;;;;;5059263;28;19935;-63
2023/01/30 00:55:36;;;;;;;;;;;9.40;99.90;;;;;;5059490;28;19908;-63
2023/01/30 00:58:01;;;;;;;;;;;9.40;99.90;;;;;;5059466;28;19915;-63
2023/01/30 01:00:27;;;;;;;;;;;9.40;99.90;;;;;;5058814;28;19971;-63
2023/01/30 01:02:53;;;;;;;;;;;9.40;99.90;;;;;;5059310;28;20284;-63
2023/01/30 01:05:18;;;;;;;;;;;9.50;99.90;;;;;;5059111;28;19932;-63
2023/01/30 01:07:44;;;;;;;;;;;9.50;99.90;;;;;;5059149;28;19916;-63
2023/01/30 01:10:15;;;;;;;;;;;9.50;99.90;;;;;;5058981;28;19909;-63
2023/01/30 01:12:44;;;;;;;;;;;9.60;99.90;;;;;;5058774;28;19909;-63
2023/01/30 01:15:12;;;;;;;;;;;9.60;99.90;;;;;;5058867;28;19979;-63
2023/01/30 01:17:38;;;;;;;;;;;9.60;99.90;;;;;;5058873;28;20288;-63
2023/01/30 01:20:04;;;;;;;;;;;9.50;99.90;;;;;;5057716;28;19909;-63
2023/01/30 01:22:30;;;;;;;;;;;9.50;99.90;;;;;;5058494;28;19919;-62
2023/01/30 01:24:56;;;;;;;;;;;9.50;99.90;;;;;;5058487;28;19944;-63
2023/01/30 01:27:21;;;;;;;;;;;9.50;99.90;;;;;;5058706;28;19995;-63
2023/01/30 01:29:47;;;;;;;;;;;9.50;99.90;;;;;;5058406;28;19909;-62
2023/01/30 01:32:12;;;;;;;;;;;9.50;99.90;;;;;;5058756;28;20283;-63
2023/01/30 01:34:38;;;;;;;;;;;9.50;99.90;;;;;;5040400;28;19913;-62
2023/01/30 01:37:04;;;;;;;;;;;9.40;99.90;;;;;;5058367;28;19913;-63
2023/01/30 01:41:00;;;;;;;;;;;9.50;99.90;;;;;;5058249;28;19909;-63
2023/01/30 01:42:15;;;;;;;;;;;9.50;99.90;;;;;;5057897;28;19913;-63
2023/01/30 01:44:59;;;;;;;;;;;9.40;99.90;;;;;;5058359;28;20316;-63
2023/01/30 01:47:25;;;;;;;;;;;9.40;99.90;;;;;;5058164;28;19908;-63
2023/01/30 01:49:51;;;;;;;;;;;9.40;99.90;;;;;;5058257;28;19966;-63
2023/01/30 01:52:16;;;;;;;;;;;9.40;99.90;;;;;;5058054;28;19916;-63
2023/01/30 01:54:45;;;;;;;;;;;9.30;99.90;;;;;;5058074;28;19916;-63
2023/01/30 01:57:14;;;;;;;;;;;9.30;99.90;;;;;;5058018;28;19909;-63
2023/01/30 02:00:05;;;;;;;;;;;9.30;99.90;;;;;;5057772;28;19909;-63
2023/01/30 02:02:32;;;;;;;;;;;9.30;99.90;;;;;;5014028;28;19925;-63
2023/01/30 02:05:01;;;;;;;;;;;9.30;99.90;;;;;;5018736;28;20349;-63
2023/01/30 02:07:33;;;;;;;;;;;9.20;99.90;;;;;;5016951;28;19916;-63
2023/01/30 02:09:59;;;;;;;;;;;9.10;99.90;;;;;;5018345;28;19945;-63
2023/01/30 02:12:25;;;;;;;;;;;9.00;99.90;;;;;;5018353;28;19916;-63
2023/01/30 02:14:52;;;;;;;;;;;9.00;99.90;;;;;;5018340;28;19918;-62
2023/01/30 02:17:19;;;;;;;;;;;8.90;99.90;;;;;;5018329;28;19917;-63
2023/01/30 02:19:47;;;;;;;;;;;8.90;99.90;;;;;;5017932;28;20360;-62
2023/01/30 02:22:19;;;;;;;;;;;8.80;99.90;;;;;;5018167;28;19953;-63
2023/01/30 02:25:03;;;;;;;;;;;8.80;99.90;;;;;;5018212;28;19977;-63
2023/01/30 02:27:29;;;;;;;;;;;8.70;99.90;;;;;;5018217;28;19949;-63
2023/01/30 02:30:04;;;;;;;;;;;8.60;99.90;;;;;;5018562;28;19909;-62
2023/01/30 02:32:48;;;;;;;;;;;8.50;99.90;;;;;;5022013;28;19916;-63
2023/01/30 02:35:23;;;;;;;;;;;8.50;99.90;;;;;;5022390;28;19910;-63
2023/01/30 02:37:54;;;;;;;;;;;8.40;99.90;;;;;;5022187;28;19992;-63
2023/01/30 02:40:29;;;;;;;;;;;8.30;99.90;;;;;;5022108;28;19909;-63
2023/01/30 02:43:04;;;;;;;;;;;8.30;99.90;;;;;;5021969;28;19913;-63
2023/01/30 02:45:34;;;;;;;;;;;8.20;99.90;;;;;;5021849;28;19917;-62
2023/01/30 02:48:11;;;;;;;;;;;8.20;99.90;;;;;;5022046;28;19909;-63
2023/01/30 02:50:50;;;;;;;;;;;8.10;99.90;;;;;;5021738;28;19909;-63
2023/01/30 02:53:15;;;;;;;;;;;8.00;99.90;;;;;;5021735;28;19963;-63
2023/01/30 02:55:41;;;;;;;;;;;7.80;99.90;;;;;;5021575;28;19909;-62
2023/01/30 02:58:07;;;;;;;;;;;7.70;99.90;;;;;;5021828;28;19916;-63
2023/01/30 03:00:46;;;;;;;;;;;7.60;99.90;;;;;;5030488;28;19939;-63
2023/01/30 03:03:17;;;;;;;;;;;7.50;99.90;;;;;;5061424;28;19913;-63
2023/01/30 03:05:46;;;;;;;;;;;7.50;99.90;;;;;;5043136;28;19931;-63
2023/01/30 03:08:11;;;;;;;;;;;7.30;99.90;;;;;;5061331;28;20385;-62
2023/01/30 03:10:42;;;;;;;;;;;7.20;99.90;;;;;;5061102;28;19909;-62
2023/01/30 03:13:26;;;;;;;;;;;7.10;99.90;;;;;;5061042;28;19909;-63
2023/01/30 03:16:03;;;;;;;;;;;7.00;99.90;;;;;;5061042;28;19913;-62
2023/01/30 03:18:29;;;;;;;;;;;6.90;99.90;;;;;;5061063;28;19920;-62
2023/01/30 03:20:55;;;;;;;;;;;6.80;99.90;;;;;;5061144;28;19909;-63
2023/01/30 03:23:21;;;;;;;;;;;6.70;99.90;;;;;;5061098;28;19913;-63
2023/01/30 03:25:47;;;;;;;;;;;6.60;99.90;;;;;;5061017;28;19995;-62
2023/01/30 03:28:18;;;;;;;;;;;6.60;99.90;;;;;;5060837;28;19944;-62
2023/01/30 03:30:44;;;;;;;;;;;6.50;99.90;;;;;;5060950;28;19913;-62
2023/01/30 03:33:10;;;;;;;;;;;6.40;99.90;;;;;;5060721;28;19915;-62
2023/01/30 03:35:35;;;;;;;;;;;6.40;99.90;;;;;;5060508;28;20011;-62
2023/01/30 03:38:01;;;;;;;;;;;6.30;99.90;;;;;;5060623;28;20337;-62
2023/01/30 03:40:27;;;;;;;;;;;6.20;99.90;;;;;;5060558;28;19908;-63
2023/01/30 03:42:53;;;;;;;;;;;6.20;99.90;;;;;;5059486;28;19952;-62
2023/01/30 03:45:18;;;;;;;;;;;6.10;99.90;;;;;;5060377;28;19967;-62
2023/01/30 03:47:44;;;;;;;;;;;6.10;99.90;;;;;;5060181;28;19909;-63
2023/01/30 03:50:10;;;;;;;;;;;6.00;99.90;;;;;;5060371;28;19916;-62
2023/01/30 03:52:36;;;;;;;;;;;6.10;99.90;;;;;;5060622;28;19909;-62
2023/01/30 03:55:02;;;;;;;;;;;6.10;99.90;;;;;;5060273;28;20356;-62
2023/01/30 03:57:27;;;;;;;;;;;6.10;99.90;;;;;;5060291;28;19913;-62
2023/01/30 03:59:53;;;;;;;;;;;6.20;99.90;;;;;;5060369;28;20015;-62
2023/01/30 04:02:21;;;;;;;;;;;6.20;99.90;;;;;;5059743;28;20054;-62
2023/01/30 04:04:50;;;;;;;;;;;6.30;99.90;;;;;;5060414;28;19909;-62
2023/01/30 04:07:16;;;;;;;;;;;6.30;99.90;;;;;;5042041;28;19909;-62
2023/01/30 04:09:42;;;;;;;;;;;6.40;99.90;;;;;;5060035;28;19920;-63
2023/01/30 04:12:07;;;;;;;;;;;6.50;99.90;;;;;;5059968;28;19909;-62
2023/01/30 04:14:33;;;;;;;;;;;6.50;99.90;;;;;;5059705;28;20436;-62
2023/01/30 04:16:59;;;;;;;;;;;6.50;99.90;;;;;;5060004;28;20284;-62
2023/01/30 04:19:24;;;;;;;;;;;6.60;99.90;;;;;;5059740;28;19966;-62
2023/01/30 04:21:50;;;;;;;;;;;6.60;99.90;;;;;;5059835;28;19909;-62
2023/01/30 04:24:16;;;;;;;;;;;6.60;99.90;;;;;;5059763;28;19909;-63
2023/01/30 04:26:41;;;;;;;;;;;6.70;99.90;;;;;;5059692;28;19916;-63
2023/01/30 04:29:07;;;;;;;;;;;6.70;99.90;;;;;;5041573;28;19952;-62
2023/01/30 04:31:33;;;;;;;;;;;6.70;99.90;;;;;;5059764;28;19909;-62
2023/01/30 04:33:58;;;;;;;;;;;6.70;99.90;;;;;;5059911;28;19912;-62
2023/01/30 04:36:24;;;;;;;;;;;6.80;99.90;;;;;;5059917;28;20252;-63
2023/01/30 04:38:50;;;;;;;;;;;6.80;99.90;;;;;;5059483;28;19916;-63
2023/01/30 04:41:15;;;;;;;;;;;6.90;99.90;;;;;;5059591;28;19945;-63
2023/01/30 04:43:41;;;;;;;;;;;6.90;99.90;;;;;;5059725;28;19917;-63
2023/01/30 04:46:07;;;;;;;;;;;7.00;99.90;;;;;;5059329;28;19916;-62
2023/01/30 04:48:32;;;;;;;;;;;7.00;99.90;;;;;;5059782;28;19915;-63
2023/01/30 04:50:58;;;;;;;;;;;7.00;99.90;;;;;;5059235;28;20431;-63
2023/01/30 04:53:24;;;;;;;;;;;7.10;99.90;;;;;;5059229;28;19909;-63
2023/01/30 04:55:49;;;;;;;;;;;7.10;99.90;;;;;;5059366;28;20308;-63
2023/01/30 04:58:16;;;;;;;;;;;7.10;99.90;;;;;;5059655;28;19909;-63
2023/01/30 05:00:41;;;;;;;;;;;7.20;99.90;;;;;;5058837;28;19921;-63
2023/01/30 05:03:07;;;;;;;;;;;7.20;99.90;;;;;;5058916;28;19963;-63
2023/01/30 05:05:33;;;;;;;;;;;7.30;99.90;;;;;;5058734;28;20345;-62
2023/01/30 05:07:59;;;;;;;;;;;7.30;99.90;;;;;;5058817;28;19913;-63
2023/01/30 05:10:24;;;;;;;;;;;7.40;99.90;;;;;;5040822;28;20249;-63
2023/01/30 05:12:50;;;;;;;;;;;7.30;99.90;;;;;;5058809;28;19909;-63
2023/01/30 05:15:16;;;;;;;;;;;7.40;99.90;;;;;;5058960;28;19909;-63
2023/01/30 05:17:41;;;;;;;;;;;7.40;99.90;;;;;;5058927;28;19916;-63
2023/01/30 05:20:08;;;;;;;;;;;7.50;99.90;;;;;;5059133;28;19908;-63
2023/01/30 05:22:34;;;;;;;;;;;7.50;99.90;;;;;;5058437;28;19912;-63
2023/01/30 05:25:00;;;;;;;;;;;7.50;99.90;;;;;;5058782;28;20284;-63
2023/01/30 05:27:26;;;;;;;;;;;7.50;99.90;;;;;;5040604;28;19908;-63
2023/01/30 05:29:51;;;;;;;;;;;7.50;99.90;;;;;;5058633;28;19966;-62
2023/01/30 05:32:17;;;;;;;;;;;7.50;99.90;;;;;;5058701;28;19944;-63
2023/01/30 05:34:43;;;;;;;;;;;7.60;99.90;;;;;;5058240;28;20451;-63
2023/01/30 05:37:09;;;;;;;;;;;7.60;99.90;;;;;;5058248;28;19920;-63
2023/01/30 05:39:35;;;;;;;;;;;7.60;99.90;;;;;;5058203;28;19931;-63
2023/01/30 05:42:01;;;;;;;;;;;7.60;99.90;;;;;;5058540;28;19912;-63
2023/01/30 05:44:27;;;;;;;;;;;7.70;99.90;;;;;;5058230;28;19981;-63
2023/01/30 05:46:52;;;;;;;;;;;7.70;99.90;;;;;;5058569;28;20395;-63
2023/01/30 05:49:18;;;;;;;;;;;7.70;99.90;;;;;;5058054;28;19956;-63
2023/01/30 05:51:44;;;;;;;;;;;7.70;99.90;;;;;;5058127;28;20001;-63
2023/01/30 05:54:09;;;;;;;;;;;7.80;99.90;;;;;;5058082;28;19909;-63
2023/01/30 05:56:35;;;;;;;;;;;7.80;99.90;;;;;;5058485;28;19909;-63
2023/01/30 05:59:01;;;;;;;;;;;7.80;99.90;;;;;;5057979;28;19967;-63
2023/01/30 06:01:27;;;;;;;;;;;7.80;99.90;;;;;;5057681;28;19920;-63
2023/01/30 06:03:53;;;;;;;;;;;7.90;99.90;;;;;;5057756;28;19939;-63
2023/01/30 06:06:19;;;;;;;;;;;7.90;99.90;;;;;;5057495;28;19913;-63
2023/01/30 06:08:45;;;;;;;;;;;7.90;99.90;;;;;;5057876;28;19908;-63
2023/01/30 06:11:11;;;;;;;;;;;7.90;99.90;;;;;;5057727;28;20426;-63
2023/01/30 06:13:38;;;;;;;;;;;7.90;99.90;;;;;;5058067;28;20357;-63
2023/01/30 06:16:04;;;;;;;;;;;7.90;99.90;;;;;;5057687;28;19939;-63
2023/01/30 06:18:30;;;;;;;;;;;7.90;99.90;;;;;;5058100;28;19908;-63
2023/01/30 06:20:55;;;;;;;;;;;8.00;99.90;;;;;;5057772;28;20331;-63
2023/01/30 06:23:22;;;;;;;;;;;8.00;99.90;;;;;;5057787;28;19920;-63
2023/01/30 06:25:48;;;;;;;;;;;8.00;99.90;;;;;;5057621;28;20276;-63
2023/01/30 06:28:14;;;;;;;;;;;8.00;99.90;;;;;;5057842;28;19909;-63
2023/01/30 06:30:40;;;;;;;;;;;8.00;99.90;;;;;;5055230;28;19967;-63
2023/01/30 06:33:05;;;;;;;;;;;8.00;99.90;;;;;;5044830;28;19909;-63
2023/01/30 06:35:31;;;;;;;;;;;8.00;99.90;;;;;;5069165;28;20395;-63
2023/01/30 06:37:57;;;;;;;;;;;8.00;99.90;;;;;;5066178;28;19917;-63
2023/01/30 06:40:22;;;;;;;;;;;8.00;99.90;;;;;;5057146;28;20464;-63
2023/01/30 06:42:48;;;;;;;;;;;8.00;99.90;;;;;;5057092;28;19913;-63
2023/01/30 06:45:15;;;;;;;;;;;8.00;99.90;;;;;;5057108;28;19909;-63
2023/01/30 06:47:47;;;;;;;;;;;8.10;99.90;;;;;;5057382;28;20349;-63
2023/01/30 06:50:14;;;;;;;;;;;8.10;99.90;;;;;;5055486;28;19982;-63
2023/01/30 06:52:43;;;;;;;;;;;8.10;99.90;;;;;;5061168;28;19916;-63
2023/01/30 06:55:10;;;;;;;;;;;8.10;99.90;;;;;;5056282;28;20343;-63
2023/01/30 06:57:36;;;;;;;;;;;8.10;99.90;;;;;;5056871;28;20391;-63
2023/01/30 07:00:05;;;;;;;;;;;8.10;99.90;;;;;;5057147;28;19909;-64
2023/01/30 07:02:34;;;;;;;;;;;8.10;99.90;;;;;;5053516;28;19917;-63
2023/01/30 07:05:02;;;;;;;;;;;8.10;99.90;;;;;;5052297;28;19971;-63
2023/01/30 07:07:28;;;;;;;;;;;8.10;99.90;;;;;;5054922;28;19913;-63
2023/01/30 07:09:54;;;;;;;;;;;8.10;99.90;;;;;;5057438;28;19916;-63
2023/01/30 07:12:20;;;;;;;;;;;8.10;99.90;;;;;;5056081;28;20066;-63
2023/01/30 07:14:46;;;;;;;;;;;8.10;99.90;;;;;;5053543;28;19921;-63
2023/01/30 07:17:12;;;;;;;;;;;8.10;99.90;;;;;;5060341;28;19952;-63
2023/01/30 07:19:37;;;;;;;;;;;8.10;99.90;;;;;;5071015;28;19913;-63
2023/01/30 07:22:03;;;;;;;;;;;8.10;99.90;;;;;;5078881;28;19920;-63
2023/01/30 07:24:29;;;;;;;;;;;8.10;99.90;;;;;;5074365;28;19966;-63
2023/01/30 07:26:55;;;;;;;;;;;8.10;99.90;;;;;;5075796;28;20032;-63
2023/01/30 07:29:21;;;;;;;;;;;8.10;99.90;;;;;;5059587;28;19956;-63
2023/01/30 07:31:46;;;;;;;;;;;8.10;99.90;;;;;;5060926;28;19995;-63
2023/01/30 07:34:12;;;;;;;;;;;8.10;99.90;;;;;;5069432;28;19956;-63
2023/01/30 07:36:38;;;;;;;;;;;8.10;99.90;;;;;;5066037;28;19913;-63
2023/01/30 07:39:04;;;;;;;;;;;8.10;99.90;;;;;;5057185;28;19919;-63
2023/01/30 07:41:36;;;;;;;;;;;8.10;99.90;;;;;;5058726;28;19970;-63
2023/01/30 07:44:02;;;;;;;;;;;8.10;99.90;;;;;;5060335;28;20016;-63
2023/01/30 07:46:33;;;;;;;;;;;8.10;99.90;;;;;;5060838;28;19952;-63
2023/01/30 07:49:06;;;;;;;;;;;8.10;99.90;;;;;;5058129;28;19917;-63
2023/01/30 07:51:31;;;;;;;;;;;8.10;99.90;;;;;;5052026;28;19913;-63
2023/01/30 07:53:57;;;;;;;;;;;8.20;99.90;;;;;;5075459;28;20003;-63
2023/01/30 07:56:23;;;;;;;;;;;8.20;99.90;;;;;;5057563;28;19913;-63
2023/01/30 07:58:50;;;;;;;;;;;8.20;99.90;;;;;;5058378;28;19923;-63
2023/01/30 08:01:16;;;;;;;;;;;8.30;99.90;;;;;;5059265;28;20331;-63
2023/01/30 08:03:43;;;;;;;;;;;8.30;99.90;;;;;;5060030;28;20280;-63
2023/01/30 08:06:09;;;;;;;;;;;8.30;99.90;;;;;;5060434;28;20035;-63
2023/01/30 08:08:34;;;;;;;;;;;8.30;99.90;;;;;;5059961;28;19956;-63
2023/01/30 08:11:00;;;;;;;;;;;8.40;99.90;;;;;;5060424;28;20278;-63
2023/01/30 08:13:26;;;;;;;;;;;8.40;99.90;;;;;;5059807;28;20327;-63
2023/01/30 08:15:51;;;;;;;;;;;8.50;99.90;;;;;;5060074;28;19931;-63
2023/01/30 08:18:17;;;;;;;;;;;8.50;99.90;;;;;;5060001;28;19908;-63
2023/01/30 08:20:43;;;;;;;;;;;8.50;99.90;;;;;;5059532;28;19909;-63
2023/01/30 08:23:09;;;;;;;;;;;8.60;99.90;;;;;;5059572;28;19924;-63
2023/01/30 08:25:34;;;;;;;;;;;8.60;99.90;;;;;;5059992;28;19916;-63
2023/01/30 08:28:00;;;;;;;;;;;8.70;99.90;;;;;;5058973;28;20340;-63
2023/01/30 08:30:26;;;;;;;;;;;8.70;99.90;;;;;;5059351;28;19909;-63
2023/01/30 08:32:52;;;;;;;;;;;8.80;99.90;;;;;;5059280;28;19917;-63
2023/01/30 08:35:17;;;;;;;;;;;8.80;99.90;;;;;;5059317;28;19909;-63
2023/01/30 08:37:43;;;;;;;;;;;8.80;99.90;;;;;;5058865;28;19958;-63
2023/01/30 08:40:09;;;;;;;;;;;8.80;99.90;;;;;;5058882;28;19913;-63
2023/01/30 08:42:35;;;;;;;;;;;8.90;99.90;;;;;;5059231;28;19913;-63
2023/01/30 08:45:01;;;;;;;;;;;8.90;99.90;;;;;;5059305;28;19909;-63
2023/01/30 08:47:26;;;;;;;;;;;9.00;99.90;;;;;;5059157;28;19931;-62
2023/01/30 08:49:52;;;;;;;;;;;9.10;99.90;;;;;;5058945;28;19916;-63
2023/01/30 08:52:18;;;;;;;;;;;9.10;99.90;;;;;;5059264;28;19955;-63
2023/01/30 08:54:44;;;;;;;;;;;9.10;99.90;;;;;;5059355;28;19931;-63
2023/01/30 08:57:10;;;;;;;;;;;9.20;99.90;;;;;;5058990;28;20375;-63
2023/01/30 08:59:35;;;;;;;;;;;9.20;99.90;;;;;;5058255;28;19955;-63
2023/01/30 09:02:01;;;;;;;;;;;9.30;99.90;;;;;;5058162;28;19949;-63
2023/01/30 09:04:30;;;;;;;;;;;9.40;99.90;;;;;;5058336;28;20373;-63
2023/01/30 09:06:56;;;;;;;;;;;9.40;99.90;;;;;;5058279;28;20288;-63
2023/01/30 09:09:22;;;;;;;;;;;9.50;99.90;;;;;;5058248;28;20036;-64
2023/01/30 09:11:47;;;;;;;;;;;9.60;99.90;;;;;;5057987;28;19909;-64
2023/01/30 09:14:18;;;;;;;;;;;9.60;99.90;;;;;;5058450;28;19909;-64
2023/01/30 09:16:54;;;;;;;;;;;9.70;99.90;;;;;;5058409;28;19931;-64
2023/01/30 09:19:27;;;;;;;;;;;9.70;99.90;;;;;;5058485;28;19909;-64
2023/01/30 09:21:53;;;;;;;;;;;9.80;99.90;;;;;;5058378;28;19908;-64
2023/01/30 09:24:20;;;;;;;;;;;9.80;99.90;;;;;;5058711;28;19919;-64
2023/01/30 09:26:46;;;;;;;;;;;9.90;99.90;;;;;;5058404;28;19961;-64
2023/01/30 09:29:13;;;;;;;;;;;10.00;99.90;;;;;;5058169;28;20007;-64
2023/01/30 09:31:39;;;;;;;;;;;10.10;99.90;;;;;;5058575;28;19928;-64
2023/01/30 09:34:05;;;;;;;;;;;10.10;99.90;;;;;;5058564;28;19909;-64
2023/01/30 09:36:31;;;;;;;;;;;10.20;99.90;;;;;;5058281;28;19909;-64
2023/01/30 09:38:57;;;;;;;;;;;10.30;99.90;;;;;;5058353;28;20303;-64
2023/01/30 09:41:37;;;;;;;;;;;10.40;99.90;;;;;;5057630;28;20320;-64
2023/01/30 09:44:18;;;;;;;;;;;10.40;99.90;;;;;;5058069;28;19952;-64
2023/01/30 09:47:03;;;;;;;;;;;10.50;99.90;;;;;;5040097;28;19924;-64
2023/01/30 09:49:37;;;;;;;;;;;10.60;99.90;;;;;;5058246;28;19913;-64
2023/01/30 09:52:18;;;;;;;;;;;10.70;99.90;;;;;;5058424;28;20306;-64
2023/01/30 09:54:44;;;;;;;;;;;10.90;99.90;;;;;;5057870;28;19951;-64
2023/01/30 09:57:15;;;;;;;;;;;11.00;99.90;;;;;;5058024;28;19909;-64
2023/01/30 09:59:44;;;;;;;;;;;11.10;99.90;;;;;;5057888;28;19944;-64
2023/01/30 10:02:28;;;;;;;;;;;11.20;99.90;;;;;;5057352;28;19928;-64
2023/01/30 10:04:57;;;;;;;;;;;11.30;99.90;;;;;;5058148;28;19920;-64
2023/01/30 10:07:25;;;;;;;;;;;11.40;99.90;;;;;;5057747;28;19909;-64
2023/01/30 10:09:53;;;;;;;;;;;11.50;99.90;;;;;;5057830;28;19909;-64
2023/01/30 10:12:37;;;;;;;;;;;11.50;99.90;;;;;;5057545;28;20050;-64
2023/01/30 10:15:22;;;;;;;;;;;11.60;99.90;;;;;;5057735;28;19980;-64
2023/01/30 10:18:27;;;;;;;;;;;11.60;99.90;;;;;;5056961;28;20025;-64
2023/01/30 10:21:13;;;;;;;;;;;11.70;99.90;;;;;;4977364;28;20375;-64
2023/01/30 10:23:43;;;;;;;;;;;11.80;99.90;;;;;;4976753;28;19921;-64
2023/01/30 10:26:14;;;;;;;;;;;11.90;99.90;;;;;;5027608;28;20341;-64
2023/01/30 10:28:42;;;;;;;;;;;12.10;99.90;;;;;;5057931;28;20379;-64
2023/01/30 10:31:15;;;;;;;;;;;12.40;99.90;;;;;;5057715;28;19955;-64
2023/01/30 10:33:49;;;;;;;;;;;13.00;99.90;;;;;;5057723;28;19916;-64
2023/01/30 10:36:22;;;;;;;;;;;13.80;99.90;;;;;;5057450;28;20053;-64
2023/01/30 10:38:49;;;;;;;;;;;14.50;99.90;;;;;;5057863;28;19967;-64
2023/01/30 10:41:23;;;;;;;;;;;15.00;99.90;;;;;;5057482;28;19909;-64
2023/01/30 10:44:08;;;;;;;;;;;15.50;99.90;;;;;;5057615;28;19923;-64
2023/01/30 10:46:34;;;;;;;;;;;15.50;99.90;;;;;;5057443;28;19975;-64
2023/01/30 10:49:18;;;;;;;;;;;15.30;99.90;;;;;;5057618;28;19917;-64
2023/01/30 10:51:44;;;;;;;;;;;15.20;99.90;;;;;;5059354;28;19909;-64
2023/01/30 10:54:32;;;;;;;;;;;15.10;99.90;;;;;;5061536;28;19915;-65
2023/01/30 10:57:02;;;;;;;;;;;14.90;99.90;;;;;;5061691;28;19909;-65
2023/01/30 10:59:33;;;;;;;;;;;14.70;99.90;;;;;;5043368;28;19909;-64
2023/01/30 11:01:59;;;;;;;;;;;14.60;99.90;;;;;;5060911;28;20356;-65
2023/01/30 11:04:30;;;;;;;;;;;14.60;99.90;;;;;;5061187;28;19913;-65
2023/01/30 11:06:56;;;;;;;;;;;14.80;99.90;;;;;;5060702;28;20008;-65
2023/01/30 11:09:21;;;;;;;;;;;15.00;99.90;;;;;;5061146;28;19971;-64
2023/01/30 11:11:49;;;;;;;;;;;14.90;99.90;;;;;;5061382;28;19909;-65
2023/01/30 11:14:15;;;;;;;;;;;14.90;99.90;;;;;;5061262;28;20387;-64
2023/01/30 11:16:54;;;;;;;;;;;14.90;99.90;;;;;;5060965;28;19909;-64
2023/01/30 11:19:24;;;;;;;;;;;15.00;99.90;;;;;;5061103;28;19944;-65
2023/01/30 11:21:54;;;;;;;;;;;14.90;99.90;;;;;;5061027;28;19909;-65
2023/01/30 11:24:22;;;;;;;;;;;14.90;99.90;;;;;;5061031;28;19917;-64
2023/01/30 11:26:48;;;;;;;;;;;15.40;99.90;;;;;;5061007;28;19909;-64
2023/01/30 11:29:15;;;;;;;;;;;15.90;99.90;;;;;;5060970;28;19915;-64
2023/01/30 11:31:40;;;;;;;;;;;15.80;99.90;;;;;;5060636;28;20410;-64
2023/01/30 11:34:14;;;;;;;;;;;15.60;99.90;;;;;;5060970;28;19909;-65
2023/01/30 11:36:40;;;;;;;;;;;15.50;99.90;;;;;;5060757;28;20038;-64
2023/01/30 11:39:27;;;;;;;;;;;15.20;99.90;;;;;;5060560;28;19908;-64
2023/01/30 11:41:53;;;;;;;;;;;14.90;99.90;;;;;;5060486;28;19908;-65
2023/01/30 11:44:24;;;;;;;;;;;14.60;99.90;;;;;;5060493;28;20151;-64
2023/01/30 11:46:49;;;;;;;;;;;14.60;99.90;;;;;;5060675;28;19909;-65
2023/01/30 11:49:17;;;;;;;;;;;14.50;99.90;;;;;;5060633;28;19924;-65
2023/01/30 11:51:44;;;;;;;;;;;14.50;99.90;;;;;;5060601;28;19948;-64
2023/01/30 11:54:15;;;;;;;;;;;14.60;99.90;;;;;;5060247;28;19958;-64
2023/01/30 11:56:46;;;;;;;;;;;14.70;99.90;;;;;;5060418;28;19909;-64
2023/01/30 11:59:27;;;;;;;;;;;14.70;99.90;;;;;;5060245;28;19909;-64
2023/01/30 12:02:02;;;;;;;;;;;15.20;99.90;;;;;;5059738;28;20387;-64
2023/01/30 12:04:27;;;;;;;;;;;15.60;99.90;;;;;;5059859;28;19920;-64
2023/01/30 12:07:04;;;;;;;;;;;15.80;99.90;;;;;;5059998;28;19913;-64
2023/01/30 12:09:37;;;;;;;;;;;16.00;99.90;;;;;;5060155;28;19913;-64
2023/01/30 12:12:22;;;;;;;;;;;16.30;99.90;;;;;;5059936;28;19932;-64
2023/01/30 12:14:49;;;;;;;;;;;16.30;99.90;;;;;;5060086;28;19915;-64
2023/01/30 12:17:33;;;;;;;;;;;15.90;99.90;;;;;;5059924;28;20272;-64
2023/01/30 12:20:19;;;;;;;;;;;15.80;99.90;;;;;;5059842;28;19913;-64
2023/01/30 12:23:03;;;;;;;;;;;15.50;99.90;;;;;;5042297;28;20280;-64
2023/01/30 12:25:35;;;;;;;;;;;15.30;99.90;;;;;;5060195;28;19913;-64
2023/01/30 12:28:04;;;;;;;;;;;14.90;99.90;;;;;;5059803;28;19909;-64
2023/01/30 12:30:36;;;;;;;;;;;15.00;99.90;;;;;;5059603;28;19909;-64
2023/01/30 12:33:03;;;;;;;;;;;15.10;99.90;;;;;;5059912;28;19932;-64
2023/01/30 12:35:43;;;;;;;;;;;15.30;99.90;;;;;;5059488;28;19909;-65
2023/01/30 12:38:16;;;;;;;;;;;15.20;99.90;;;;;;5059538;28;19931;-64
2023/01/30 12:40:48;;;;;;;;;;;15.10;99.90;;;;;;5059500;28;20356;-64
2023/01/30 12:43:25;;;;;;;;;;;14.80;99.90;;;;;;5057310;28;19921;-64
2023/01/30 12:46:09;;;;;;;;;;;14.50;99.90;;;;;;5058395;28;19909;-64
2023/01/30 12:48:37;;;;;;;;;;;14.30;99.90;;;;;;5059044;28;19940;-64
2023/01/30 12:51:09;;;;;;;;;;;14.00;99.90;;;;;;5059065;28;19909;-64
2023/01/30 12:53:53;;;;;;;;;;;13.80;99.90;;;;;;5059532;28;19908;-64
2023/01/30 12:56:21;;;;;;;;;;;13.50;99.90;;;;;;5059234;28;19909;-64
2023/01/30 12:58:58;;;;;;;;;;;13.30;99.90;;;;;;5059109;28;19954;-64
2023/01/30 13:01:43;;;;;;;;;;;13.20;99.90;;;;;;5058949;28;19920;-64
2023/01/30 13:04:18;;;;;;;;;;;13.10;99.90;;;;;;5058617;28;19975;-64
2023/01/30 13:06:45;;;;;;;;;;;13.10;99.90;;;;;;5057397;28;19909;-64
2023/01/30 13:09:19;;;;;;;;;;;13.00;99.90;;;;;;5057686;28;19944;-64
2023/01/30 13:12:04;;;;;;;;;;;13.10;99.90;;;;;;5058767;28;20000;-64
2023/01/30 13:14:32;;;;;;;;;;;13.00;99.90;;;;;;5058600;28;19962;-64
2023/01/30 13:17:05;;;;;;;;;;;13.10;99.90;;;;;;5058844;28;19909;-64
2023/01/30 13:19:31;;;;;;;;;;;13.10;99.90;;;;;;5058808;28;19916;-64
2023/01/30 13:22:19;;;;;;;;;;;13.10;99.90;;;;;;5058698;28;19908;-64
2023/01/30 13:25:23;;;;;;;;;;;13.20;99.90;;;;;;5057165;28;19984;-64
2023/01/30 13:27:54;;;;;;;;;;;13.20;99.90;;;;;;4977651;28;19973;-64
2023/01/30 13:30:19;;;;;;;;;;;13.30;99.90;;;;;;4978184;28;19937;-64
2023/01/30 13:32:50;;;;;;;;;;;13.30;99.90;;;;;;5017595;28;19908;-64
2023/01/30 13:35:18;;;;;;;;;;;13.30;99.90;;;;;;5058250;28;19916;-64
2023/01/30 13:37:46;;;;;;;;;;;13.20;99.90;;;;;;5058271;28;19909;-64
2023/01/30 13:40:11;;;;;;;;;;;13.20;99.90;;;;;;5058194;28;19959;-64
2023/01/30 13:42:42;;;;;;;;;;;13.10;99.90;;;;;;5058404;28;19913;-64
2023/01/30 13:45:15;;;;;;;;;;;13.00;99.90;;;;;;5058374;28;19909;-64
2023/01/30 13:47:47;;;;;;;;;;;13.00;99.90;;;;;;5058063;28;19909;-64
2023/01/30 13:50:20;;;;;;;;;;;12.70;99.90;;;;;;5058297;28;19909;-64
2023/01/30 13:52:51;;;;;;;;;;;12.60;99.90;;;;;;5058206;28;19916;-64
2023/01/30 13:55:17;;;;;;;;;;;12.60;99.90;;;;;;5058172;28;19909;-64
2023/01/30 13:57:49;;;;;;;;;;;12.60;99.90;;;;;;5057980;28;19909;-64
2023/01/30 14:00:28;;;;;;;;;;;12.50;99.90;;;;;;5057762;28;19919;-64
2023/01/30 14:03:03;;;;;;;;;;;12.50;99.90;;;;;;5058506;28;19917;-64
2023/01/30 14:05:47;;;;;;;;;;;12.50;99.90;;;;;;5057825;28;19996;-64
2023/01/30 14:08:17;;;;;;;;;;;12.60;99.90;;;;;;5057744;28;19964;-64
2023/01/30 14:10:43;;;;;;;;;;;12.70;99.90;;;;;;5057946;28;19909;-64
2023/01/30 14:13:12;;;;;;;;;;;12.80;99.90;;;;;;5058191;28;19909;-64
2023/01/30 14:15:39;;;;;;;;;;;12.90;99.90;;;;;;5057913;28;19947;-64
2023/01/30 14:18:06;;;;;;;;;;;13.00;99.90;;;;;;5057908;28;19916;-64
2023/01/30 14:20:33;;;;;;;;;;;13.10;99.90;;;;;;5057677;28;20000;-64
2023/01/30 14:23:00;;;;;;;;;;;13.20;99.90;;;;;;5057505;28;19935;-64
2023/01/30 14:25:28;;;;;;;;;;;13.20;99.90;;;;;;5056962;28;20003;-64
2023/01/30 14:28:14;;;;;;;;;;;13.30;99.90;;;;;;5057628;28;19909;-64
2023/01/30 14:30:43;;;;;;;;;;;13.30;99.90;;;;;;5057393;28;19912;-64
2023/01/30 14:33:20;;;;;;;;;;;13.40;99.90;;;;;;5057686;28;20003;-64
2023/01/30 14:36:01;;;;;;;;;;;13.40;99.90;;;;;;5057959;28;20007;-64
2023/01/30 14:38:29;;;;;;;;;;;13.40;99.90;;;;;;5057742;28;19923;-64
2023/01/30 14:40:58;;;;;;;;;;;13.40;99.90;;;;;;5057594;28;19909;-64
2023/01/30 14:43:33;;;;;;;;;;;13.50;99.90;;;;;;5057260;28;20334;-64